Time;durP1;ratioP1;P1;durP2;ratioP2;P2;SDS_P1;SDS_P2;PMS_P1;PMS_P2;Temp;Humidity;BMP_temperature;BMP_pressure;BME280_temperature;BME280_humidity;BME280_pressure;Samples;Min_cycle;Max_cycle;Signal;HPM_P1;HPM_P2
2023/02/06 10:12:20;;;;;;;18.20;16.73;;;3.20;99.90;;;;;;5086464;27;20789;-74
2023/02/06 10:14:51;;;;;;;18.80;16.90;;;4.80;99.90;;;;;;5086687;28;20447;-74
2023/02/06 10:17:21;;;;;;;18.33;16.67;;;4.80;99.90;;;;;;5086580;28;20447;-74
2023/02/06 10:19:56;;;;;;;17.73;15.80;;;5.00;99.90;;;;;;5086703;28;20449;-74
2023/02/06 10:22:28;;;;;;;18.13;16.40;;;4.90;99.90;;;;;;5086553;28;20477;-75
2023/02/06 10:25:13;;;;;;;17.50;16.30;;;5.00;99.90;;;;;;5086716;28;20443;-74
2023/02/06 10:27:44;;;;;;;16.03;14.60;;;5.20;99.90;;;;;;5086474;28;20443;-74
2023/02/06 10:30:16;;;;;;;17.00;15.70;;;5.20;99.90;;;;;;5086558;28;20483;-74
2023/02/06 10:32:51;;;;;;;18.93;17.03;;;5.10;99.90;;;;;;5086486;28;20605;-74
2023/02/06 10:35:33;;;;;;;17.00;15.80;;;5.10;99.90;;;;;;5086292;28;20453;-76
2023/02/06 10:38:21;;;;;;;18.33;16.83;;;5.10;99.90;;;;;;5086318;28;20893;-76
2023/02/06 10:40:52;;;;;;;13.20;12.40;;;5.20;99.90;;;;;;5085992;28;20443;-76
2023/02/06 10:43:32;;;;;;;15.20;14.03;;;5.10;99.90;;;;;;5086274;28;20443;-75
2023/02/06 10:46:10;;;;;;;13.23;12.20;;;5.20;99.90;;;;;;5086288;28;20446;-75
2023/02/06 10:48:43;;;;;;;12.50;11.70;;;5.10;99.90;;;;;;5085994;28;20454;-76
2023/02/06 10:51:18;;;;;;;12.07;11.20;;;4.90;99.90;;;;;;5086001;28;20501;-76
2023/02/06 10:53:49;;;;;;;12.03;11.13;;;4.80;99.90;;;;;;5086015;28;20447;-76
2023/02/06 10:56:21;;;;;;;11.00;10.40;;;4.60;99.90;;;;;;5085898;28;20534;-76
2023/02/06 10:58:53;;;;;;;12.10;11.40;;;4.40;99.90;;;;;;5085831;28;20457;-76
2023/02/06 11:01:22;;;;;;;11.43;10.90;;;4.30;99.90;;;;;;5085607;28;20439;-75
2023/02/06 11:03:55;;;;;;;12.50;11.60;;;4.30;99.90;;;;;;5085716;28;20451;-76
2023/02/06 11:06:25;;;;;;;12.30;11.63;;;4.40;99.90;;;;;;5085682;28;20482;-76
2023/02/06 11:08:52;;;;;;;13.00;11.93;;;4.40;99.90;;;;;;5085561;28;20529;-76
2023/02/06 11:11:21;;;;;;;12.30;11.57;;;4.40;99.90;;;;;;5082552;28;20537;-76
2023/02/06 11:13:52;;;;;;;11.77;11.07;;;4.50;99.90;;;;;;5071988;28;20444;-75
2023/02/06 11:16:23;;;;;;;11.57;10.97;;;4.50;99.90;;;;;;5071724;28;20455;-75
2023/02/06 11:18:51;;;;;;;12.10;11.40;;;4.70;99.90;;;;;;5071833;28;20448;-74
2023/02/06 11:21:47;;;;;;;12.40;11.50;;;4.90;99.90;;;;;;5071933;28;20494;-75
2023/02/06 11:24:16;;;;;;;11.10;10.40;;;5.10;99.90;;;;;;5072105;28;20447;-75
2023/02/06 11:26:46;;;;;;;11.53;10.80;;;5.10;99.90;;;;;;5072086;28;20448;-75
2023/02/06 11:29:18;;;;;;;10.67;10.07;;;5.30;99.90;;;;;;5072037;28;20943;-75
2023/02/06 11:31:48;;;;;;;10.83;10.23;;;5.40;99.90;;;;;;5071827;28;20899;-75
2023/02/06 11:34:25;;;;;;;11.30;10.50;;;5.50;99.90;;;;;;5071830;28;20959;-76
2023/02/06 11:36:54;;;;;;;11.97;10.97;;;5.80;99.90;;;;;;5071662;28;20966;-75
2023/02/06 11:39:23;;;;;;;10.93;10.33;;;6.10;99.90;;;;;;5071579;28;20678;-74
2023/02/06 11:41:58;;;;;;;11.37;10.57;;;6.20;99.90;;;;;;5071600;28;20450;-75
2023/02/06 11:44:27;;;;;;;11.73;11.07;;;6.20;99.90;;;;;;5071601;28;20455;-75
2023/02/06 11:46:55;;;;;;;11.00;10.13;;;6.30;99.90;;;;;;5071676;28;20444;-75
2023/02/06 11:49:27;;;;;;;10.90;10.30;;;6.60;99.90;;;;;;5071487;28;20548;-74
2023/02/06 11:51:58;;;;;;;12.47;11.67;;;6.70;99.90;;;;;;5071396;28;20490;-75
2023/02/06 11:54:29;;;;;;;13.00;11.90;;;6.80;99.90;;;;;;5071333;28;20444;-75
2023/02/06 11:57:03;;;;;;;13.47;12.50;;;6.60;99.90;;;;;;5071538;28;20456;-75
2023/02/06 11:59:33;;;;;;;11.60;10.90;;;6.40;99.90;;;;;;5071456;28;20459;-74
2023/02/06 12:02:04;;;;;;;12.90;12.07;;;6.20;99.90;;;;;;5071447;28;20451;-75
2023/02/06 12:04:34;;;;;;;14.40;13.50;;;5.90;99.90;;;;;;5071365;28;20444;-73
2023/02/06 12:07:06;;;;;;;12.90;12.10;;;6.00;99.90;;;;;;5071300;28;20496;-74
2023/02/06 12:09:33;;;;;;;12.70;12.00;;;6.20;99.90;;;;;;5070907;28;20988;-76
2023/02/06 12:12:06;;;;;;;13.53;12.50;;;5.90;99.90;;;;;;5070762;28;20493;-73
2023/02/06 12:14:38;;;;;;;12.07;11.43;;;5.80;99.90;;;;;;5071068;28;20455;-76
2023/02/06 12:17:18;;;;;;;13.50;12.60;;;5.80;99.90;;;;;;5070902;28;20530;-76
2023/02/06 12:19:50;;;;;;;12.60;11.90;;;5.90;99.90;;;;;;5071050;28;20992;-75
2023/02/06 12:22:21;;;;;;;14.70;13.63;;;5.80;99.90;;;;;;5070837;28;20444;-76
2023/02/06 12:24:49;;;;;;;14.60;13.33;;;5.60;99.90;;;;;;5069688;28;20459;-76
2023/02/06 12:27:20;;;;;;;13.77;12.70;;;5.50;99.90;;;;;;5070734;28;20444;-76
2023/02/06 12:29:57;;;;;;;13.83;12.90;;;5.30;99.90;;;;;;5070687;28;20509;-73
2023/02/06 12:32:30;;;;;;;13.53;12.60;;;5.60;99.90;;;;;;5070626;28;20490;-74
2023/02/06 12:35:01;;;;;;;16.00;14.60;;;5.70;99.90;;;;;;5070929;28;20448;-75
2023/02/06 12:37:38;;;;;;;15.63;14.43;;;5.50;99.90;;;;;;5070774;28;20452;-75
2023/02/06 12:40:15;;;;;;;17.23;15.80;;;5.40;99.90;;;;;;5070431;28;20801;-75
2023/02/06 12:42:46;;;;;;;15.40;14.40;;;5.40;99.90;;;;;;5070666;28;20504;-75
2023/02/06 12:45:32;;;;;;;15.10;14.00;;;5.40;99.90;;;;;;5070454;28;20530;-76
2023/02/06 12:48:04;;;;;;;15.73;14.63;;;5.10;99.90;;;;;;5070625;28;20514;-74
2023/02/06 12:50:38;;;;;;;17.70;16.10;;;5.00;99.90;;;;;;5070132;28;20451;-75
2023/02/06 12:53:11;;;;;;;17.67;16.00;;;4.90;99.90;;;;;;5070310;28;20500;-76
2023/02/06 12:55:41;;;;;;;19.27;14.80;;;4.90;99.90;;;;;;5070071;28;20542;-76
2023/02/06 12:58:24;;;;;;;16.00;14.97;;;5.10;99.90;;;;;;5070355;28;20451;-76
2023/02/06 13:01:06;;;;;;;15.63;14.50;;;4.80;99.90;;;;;;5070121;28;20799;-76
2023/02/06 13:03:40;;;;;;;14.77;13.70;;;4.80;99.90;;;;;;5069946;28;20950;-75
2023/02/06 13:06:17;;;;;;;14.53;13.53;;;4.80;99.90;;;;;;5069859;28;20463;-76
2023/02/06 13:08:48;;;;;;;14.93;13.73;;;4.90;99.90;;;;;;5070114;28;20934;-76
2023/02/06 13:11:27;;;;;;;16.63;15.33;;;4.80;99.90;;;;;;5069761;28;20487;-76
2023/02/06 13:14:03;;;;;;;15.53;14.30;;;4.90;99.90;;;;;;5070006;28;20527;-76
2023/02/06 13:16:57;;;;;;;17.23;15.57;;;4.90;99.90;;;;;;5069911;28;20451;-76
2023/02/06 13:19:31;;;;;;;15.97;14.60;;;4.90;99.90;;;;;;5055607;28;20943;-76
2023/02/06 13:22:33;;;;;;;15.40;14.30;;;4.80;99.90;;;;;;5070073;28;20451;-76
2023/02/06 13:25:02;;;;;;;14.00;13.20;;;4.80;99.90;;;;;;5069672;28;20950;-76
2023/02/06 13:27:38;;;;;;;12.10;11.43;;;4.80;99.90;;;;;;5070156;28;20448;-76
2023/02/06 13:30:37;;;;;;;13.10;11.90;;;4.60;99.90;;;;;;5069741;28;20440;-76
2023/02/06 13:33:15;;;;;;;12.17;11.43;;;4.60;99.90;;;;;;5069419;28;20614;-76
2023/02/06 13:35:55;;;;;;;13.57;12.73;;;4.50;99.90;;;;;;5069949;28;20443;-76
2023/02/06 13:38:28;;;;;;;13.60;12.67;;;4.70;99.90;;;;;;5069552;28;20447;-76
2023/02/06 13:41:27;;;;;;;13.83;12.93;;;4.70;99.90;;;;;;5069692;28;20938;-75
2023/02/06 13:43:57;;;;;;;12.40;11.50;;;4.90;99.90;;;;;;5069651;28;20531;-76
2023/02/06 13:46:37;;;;;;;12.30;11.60;;;5.10;99.90;;;;;;5069756;28;20440;-76
2023/02/06 13:49:25;;;;;;;13.43;12.73;;;5.10;99.90;;;;;;5069772;28;20447;-75
2023/02/06 13:51:59;;;;;;;13.53;12.73;;;5.20;99.90;;;;;;5071345;28;20487;-75
2023/02/06 13:54:53;;;;;;;13.57;12.67;;;5.40;99.90;;;;;;5070764;28;20483;-76
2023/02/06 13:57:28;;;;;;;12.30;11.70;;;5.80;99.90;;;;;;5074346;28;20451;-76
2023/02/06 13:59:59;;;;;;;11.77;11.17;;;5.90;99.90;;;;;;5073184;28;20534;-76
2023/02/06 14:02:31;;;;;;;13.17;12.27;;;5.60;99.90;;;;;;5071795;28;20427;-75
2023/02/06 14:05:01;;;;;;;13.80;12.90;;;5.40;99.90;;;;;;5071635;28;20469;-76
2023/02/06 14:07:44;;;;;;;12.93;12.23;;;5.50;99.90;;;;;;5072004;28;20476;-76
2023/02/06 14:13:27;;;;;;;12.80;12.10;;;5.40;99.90;;;;;;5081872;28;20441;-76
2023/02/06 14:16:17;;;;;;;13.23;12.33;;;5.40;99.90;;;;;;5077884;28;20479;-76
2023/02/06 14:18:50;;;;;;;13.43;12.60;;;5.20;99.90;;;;;;5069753;28;20444;-76
2023/02/06 14:21:29;;;;;;;13.33;12.57;;;5.20;99.90;;;;;;5069310;28;20447;-75
2023/02/06 14:24:21;;;;;;;12.40;11.70;;;5.20;99.90;;;;;;5069278;28;20977;-76
2023/02/06 14:26:59;;;;;;;12.97;12.20;;;5.30;99.90;;;;;;5069249;28;20463;-76
2023/02/06 14:29:36;;;;;;;12.77;12.07;;;5.30;99.90;;;;;;5069399;28;20972;-76
2023/02/06 14:32:22;;;;;;;12.90;12.20;;;5.50;99.90;;;;;;5068773;28;20559;-76
2023/02/06 14:34:59;;;;;;;13.30;12.50;;;5.50;99.90;;;;;;5069239;28;20455;-76
2023/02/06 14:37:44;;;;;;;13.70;12.90;;;5.30;99.90;;;;;;5069421;28;20439;-76
2023/02/06 14:40:15;;;;;;;13.77;12.70;;;5.30;99.90;;;;;;5068993;28;20447;-74
2023/02/06 14:42:45;;;;;;;12.37;11.70;;;5.40;99.90;;;;;;5069384;28;20452;-75
2023/02/06 14:45:23;;;;;;;13.13;12.40;;;5.60;99.90;;;;;;5069062;28;20456;-75
2023/02/06 14:47:51;;;;;;;13.80;12.83;;;5.50;99.90;;;;;;5071148;28;20484;-76
2023/02/06 14:50:22;;;;;;;13.50;12.70;;;5.50;99.90;;;;;;5072501;28;20851;-76
2023/02/06 14:52:53;;;;;;;12.23;11.63;;;5.40;99.90;;;;;;5072546;28;20889;-75
2023/02/06 14:55:30;;;;;;;14.00;13.20;;;5.20;99.90;;;;;;5077007;28;20446;-75
2023/02/06 14:57:57;;;;;;;13.63;12.83;;;5.00;99.90;;;;;;5081782;28;20458;-75
2023/02/06 15:00:25;;;;;;;12.97;12.10;;;5.00;99.90;;;;;;5073898;28;20463;-75
2023/02/06 15:03:03;;;;;;;12.37;11.47;;;5.10;99.90;;;;;;5074048;28;20783;-74
2023/02/06 15:05:30;;;;;;;12.73;12.03;;;5.10;99.90;;;;;;5072788;28;20458;-75
2023/02/06 15:08:00;;;;;;;13.80;12.83;;;5.10;99.90;;;;;;5072430;28;20471;-75
2023/02/06 15:10:29;;;;;;;14.40;13.20;;;5.20;99.90;;;;;;5072442;28;20537;-76
2023/02/06 15:12:56;;;;;;;13.00;12.37;;;5.20;99.90;;;;;;5072371;28;20586;-75
2023/02/06 15:15:24;;;;;;;14.37;13.27;;;5.20;99.90;;;;;;5072091;28;20447;-73
2023/02/06 15:17:59;;;;;;;13.00;12.30;;;5.10;99.90;;;;;;5072023;28;20762;-75
2023/02/06 15:20:36;;;;;;;13.63;12.40;;;5.10;99.90;;;;;;5072151;28;20508;-74
2023/02/06 15:23:11;;;;;;;12.70;11.90;;;5.10;99.90;;;;;;5071688;28;20447;-75
2023/02/06 15:25:50;;;;;;;12.17;11.57;;;4.90;99.90;;;;;;5071755;28;20457;-74
2023/02/06 15:28:19;;;;;;;12.67;11.97;;;4.90;99.90;;;;;;5071875;28;20501;-74
2023/02/06 15:30:47;;;;;;;12.93;12.23;;;4.90;99.90;;;;;;5071845;28;20460;-75
2023/02/06 15:33:26;;;;;;;14.37;13.50;;;4.70;99.90;;;;;;5072113;28;20486;-75
2023/02/06 15:35:55;;;;;;;13.67;12.90;;;4.70;99.90;;;;;;5071830;28;20486;-75
2023/02/06 15:38:24;;;;;;;12.70;11.90;;;4.70;99.90;;;;;;5071591;28;20451;-75
2023/02/06 15:40:55;;;;;;;12.90;12.10;;;4.70;99.90;;;;;;5071704;28;20443;-76
2023/02/06 15:43:24;;;;;;;12.70;12.00;;;4.60;99.90;;;;;;5071657;28;20945;-75
2023/02/06 15:45:53;;;;;;;12.53;11.83;;;4.60;99.90;;;;;;5071575;28;20487;-74
2023/02/06 15:48:24;;;;;;;11.40;10.90;;;4.50;99.90;;;;;;5071635;28;20635;-75
2023/02/06 15:50:56;;;;;;;12.53;11.70;;;4.50;99.90;;;;;;5071355;28;20462;-75
2023/02/06 15:53:32;;;;;;;12.23;11.43;;;4.50;99.90;;;;;;5071376;28;20483;-75
2023/02/06 15:56:00;;;;;;;13.10;12.40;;;4.40;99.90;;;;;;5071725;28;20470;-75
2023/02/06 15:58:27;;;;;;;12.43;11.87;;;4.50;99.90;;;;;;5071520;28;20504;-76
2023/02/06 16:00:56;;;;;;;13.83;12.70;;;4.50;99.90;;;;;;5071536;28;20835;-75
2023/02/06 16:03:25;;;;;;;13.30;12.50;;;4.40;99.90;;;;;;5071485;28;20801;-75
2023/02/06 16:05:52;;;;;;;12.80;11.90;;;4.40;99.90;;;;;;5071116;28;20451;-75
2023/02/06 16:08:22;;;;;;;12.77;11.90;;;4.50;99.90;;;;;;5070852;28;20455;-76
2023/02/06 16:10:52;;;;;;;12.33;11.63;;;4.40;99.90;;;;;;5071046;28;20483;-75
2023/02/06 16:13:21;;;;;;;12.10;11.30;;;4.50;99.90;;;;;;5071044;28;21026;-75
2023/02/06 16:16:04;;;;;;;13.63;12.73;;;4.50;99.90;;;;;;5071058;28;20505;-76
2023/02/06 16:18:32;;;;;;;12.17;11.47;;;4.40;99.90;;;;;;5071112;28;20522;-75
2023/02/06 16:21:27;;;;;;;14.53;11.80;;;4.40;99.90;;;;;;5071124;28;20451;-76
2023/02/06 16:24:15;;;;;;;12.73;11.83;;;4.40;99.90;;;;;;5071169;28;20452;-76
2023/02/06 16:26:46;;;;;;;11.60;11.00;;;4.50;99.90;;;;;;5070937;28;20459;-75
2023/02/06 16:29:23;;;;;;;12.07;11.37;;;4.40;99.90;;;;;;5071048;28;20478;-76
2023/02/06 16:31:58;;;;;;;12.83;12.03;;;4.50;99.90;;;;;;5070524;28;20486;-75
2023/02/06 16:34:41;;;;;;;12.33;11.70;;;4.50;99.90;;;;;;5070844;28;20879;-75
2023/02/06 16:37:12;;;;;;;12.60;12.00;;;4.50;99.90;;;;;;5070656;28;20456;-75
2023/02/06 16:39:41;;;;;;;12.77;11.67;;;4.40;99.90;;;;;;5070341;28;20455;-75
2023/02/06 16:42:12;;;;;;;14.43;13.43;;;4.40;99.90;;;;;;5070358;28;20569;-76
2023/02/06 16:44:40;;;;;;;16.67;15.47;;;4.30;99.90;;;;;;5072418;28;20600;-74
2023/02/06 16:47:06;;;;;;;14.60;13.70;;;4.30;99.90;;;;;;5073560;28;20634;-76
2023/02/06 16:49:33;;;;;;;12.33;11.60;;;4.20;99.90;;;;;;5072332;28;20452;-76
2023/02/06 16:52:00;;;;;;;14.40;13.07;;;4.30;99.90;;;;;;5073369;28;20490;-76
2023/02/06 16:54:29;;;;;;;13.80;13.00;;;4.30;99.90;;;;;;5070566;28;20451;-74
2023/02/06 16:57:09;;;;;;;14.03;12.83;;;4.30;99.90;;;;;;5070419;28;20456;-76
2023/02/06 16:59:37;;;;;;;12.33;11.63;;;4.30;99.90;;;;;;5071278;28;20455;-77
2023/02/06 17:02:11;;;;;;;12.63;11.80;;;4.20;99.90;;;;;;5081839;28;20483;-76
2023/02/06 17:04:37;;;;;;;12.73;11.73;;;4.30;99.90;;;;;;5079086;28;20443;-76
2023/02/06 17:07:04;;;;;;;13.93;12.90;;;4.30;99.90;;;;;;5073081;28;20475;-75
2023/02/06 17:09:31;;;;;;;14.97;13.83;;;4.20;99.90;;;;;;5071130;28;20447;-75
2023/02/06 17:11:58;;;;;;;13.83;12.93;;;4.30;99.90;;;;;;5070660;28;20502;-76
2023/02/06 17:14:24;;;;;;;13.47;12.57;;;4.30;99.90;;;;;;5070632;28;20440;-76
2023/02/06 17:16:52;;;;;;;13.57;12.77;;;4.30;99.90;;;;;;5070325;28;20456;-75
2023/02/06 17:19:19;;;;;;;18.47;11.83;;;4.20;99.90;;;;;;5069867;28;20483;-75
2023/02/06 17:21:46;;;;;;;13.00;12.30;;;4.20;99.90;;;;;;5069886;28;20455;-76
2023/02/06 17:24:12;;;;;;;13.97;13.00;;;4.20;99.90;;;;;;5069815;28;20448;-76
2023/02/06 17:26:39;;;;;;;14.27;13.27;;;4.20;99.90;;;;;;5069670;28;20935;-76
2023/02/06 17:29:06;;;;;;;13.67;12.70;;;4.20;99.90;;;;;;5069877;28;21012;-76
2023/02/06 17:31:32;;;;;;;14.27;13.37;;;4.20;99.90;;;;;;5069648;28;20501;-76
2023/02/06 17:34:03;;;;;;;16.60;12.17;;;4.10;99.90;;;;;;5069772;28;20488;-76
2023/02/06 17:36:31;;;;;;;13.80;12.90;;;4.00;99.90;;;;;;5069811;28;20460;-74
2023/02/06 17:38:59;;;;;;;13.90;12.97;;;3.90;99.90;;;;;;5069788;28;20801;-76
2023/02/06 17:41:26;;;;;;;13.40;12.13;;;4.00;99.90;;;;;;5069654;28;20447;-74
2023/02/06 17:43:53;;;;;;;14.37;13.30;;;3.90;99.90;;;;;;5069521;28;20447;-76
2023/02/06 17:46:19;;;;;;;14.80;13.70;;;3.90;99.90;;;;;;5069407;28;20463;-75
2023/02/06 17:48:46;;;;;;;13.10;12.30;;;3.90;99.90;;;;;;5069439;28;20461;-76
2023/02/06 17:51:14;;;;;;;12.43;11.37;;;4.00;99.90;;;;;;5069670;28;20447;-76
2023/02/06 17:53:41;;;;;;;12.20;11.40;;;3.90;99.90;;;;;;5069330;28;21006;-76
2023/02/06 17:56:11;;;;;;;13.47;12.37;;;3.90;99.90;;;;;;5069427;28;20798;-75
2023/02/06 17:58:38;;;;;;;13.70;12.30;;;3.90;99.90;;;;;;5069313;28;20452;-76
